sensor_id;sensor_type;location;lat;lon;timestamp;pressure;altitude;pressure_sealevel;temperature;humidity
55590;BME280;41452;42.780;23.116;2023-03-29T00:01:35;94690.69;;;-2.14;85.62
55590;BME280;41452;42.780;23.116;2023-03-29T00:04:06;94700.41;;;-2.08;85.80
55590;BME280;41452;42.780;23.116;2023-03-29T00:06:32;94684.22;;;-2.18;85.83
55590;BME280;41452;42.780;23.116;2023-03-29T00:08:58;94693.00;;;-2.11;85.69
55590;BME280;41452;42.780;23.116;2023-03-29T00:11:25;94702.03;;;-2.07;85.88
55590;BME280;41452;42.780;23.116;2023-03-29T00:13:51;94704.63;;;-2.07;86.46
55590;BME280;41452;42.780;23.116;2023-03-29T00:16:17;94697.38;;;-2.21;86.49
55590;BME280;41452;42.780;23.116;2023-03-29T00:18:43;94705.47;;;-2.16;85.41
55590;BME280;41452;42.780;23.116;2023-03-29T00:21:08;94716.28;;;-2.13;85.72
55590;BME280;41452;42.780;23.116;2023-03-29T00:23:34;94705.72;;;-2.09;85.79
55590;BME280;41452;42.780;23.116;2023-03-29T00:26:00;94706.25;;;-2.06;86.38
55590;BME280;41452;42.780;23.116;2023-03-29T00:28:25;94705.41;;;-2.06;85.95
55590;BME280;41452;42.780;23.116;2023-03-29T00:30:51;94705.28;;;-2.05;85.41
55590;BME280;41452;42.780;23.116;2023-03-29T00:33:17;94706.91;;;-2.04;85.66
55590;BME280;41452;42.780;23.116;2023-03-29T00:35:45;94689.38;;;-2.18;85.44
55590;BME280;41452;42.780;23.116;2023-03-29T00:38:13;94716.53;;;-2.06;84.82
55590;BME280;41452;42.780;23.116;2023-03-29T00:40:43;94721.69;;;-2.06;85.45
55590;BME280;41452;42.780;23.116;2023-03-29T00:43:11;94719.25;;;-2.07;85.77
55590;BME280;41452;42.780;23.116;2023-03-29T00:45:37;94724.53;;;-2.09;85.19
55590;BME280;41452;42.780;23.116;2023-03-29T00:48:15;94729.03;;;-2.11;85.23
55590;BME280;41452;42.780;23.116;2023-03-29T00:50:48;94727.09;;;-2.09;85.37
55590;BME280;41452;42.780;23.116;2023-03-29T00:53:37;94727.91;;;-2.08;85.20
55590;BME280;41452;42.780;23.116;2023-03-29T00:56:06;94731.16;;;-2.06;85.00
55590;BME280;41452;42.780;23.116;2023-03-29T00:58:47;94675.44;;;-2.53;84.05
55590;BME280;41452;42.780;23.116;2023-03-29T01:01:17;94744.59;;;-2.13;83.87
55590;BME280;41452;42.780;23.116;2023-03-29T01:03:49;94741.75;;;-2.09;84.40
55590;BME280;41452;42.780;23.116;2023-03-29T01:06:20;94751.22;;;-2.10;84.17
55590;BME280;41452;42.780;23.116;2023-03-29T01:09:08;94682.75;;;-2.49;82.70
55590;BME280;41452;42.780;23.116;2023-03-29T01:11:41;94747.69;;;-2.09;82.43
55590;BME280;41452;42.780;23.116;2023-03-29T01:14:38;94751.22;;;-2.10;82.53
55590;BME280;41452;42.780;23.116;2023-03-29T01:17:05;94751.22;;;-2.10;81.55
55590;BME280;41452;42.780;23.116;2023-03-29T01:19:36;94751.22;;;-2.10;81.41
55590;BME280;41452;42.780;23.116;2023-03-29T01:22:47;94752.84;;;-2.09;81.74
55590;BME280;41452;42.780;23.116;2023-03-29T01:30:45;94748.94;;;-2.13;81.29
55590;BME280;41452;42.780;23.116;2023-03-29T01:33:39;94741.38;;;-2.15;81.33
55590;BME280;41452;42.780;23.116;2023-03-29T01:36:28;94748.78;;;-2.12;81.85
55590;BME280;41452;42.780;23.116;2023-03-29T01:39:02;94740.25;;;-2.12;82.19
55590;BME280;41452;42.780;23.116;2023-03-29T01:44:58;94742.69;;;-2.11;80.94
55590;BME280;41452;42.780;23.116;2023-03-29T01:47:36;94741.22;;;-2.13;81.42
55590;BME280;41452;42.780;23.116;2023-03-29T01:53:06;94752.88;;;-2.19;81.37
55590;BME280;41452;42.780;23.116;2023-03-29T01:55:34;94746.66;;;-2.16;80.85
55590;BME280;41452;42.780;23.116;2023-03-29T01:58:04;94747.06;;;-2.21;80.61
55590;BME280;41452;42.780;23.116;2023-03-29T02:00:32;94748.31;;;-2.25;80.68
55590;BME280;41452;42.780;23.116;2023-03-29T02:03:06;94741.25;;;-2.23;80.55
55590;BME280;41452;42.780;23.116;2023-03-29T02:05:32;94748.31;;;-2.25;80.66
55590;BME280;41452;42.780;23.116;2023-03-29T02:08:00;94742.63;;;-2.28;80.54
55590;BME280;41452;42.780;23.116;2023-03-29T02:10:28;94735.72;;;-2.28;80.99
55590;BME280;41452;42.780;23.116;2023-03-29T02:12:54;94746.00;;;-2.28;80.76
55590;BME280;41452;42.780;23.116;2023-03-29T02:15:20;94752.13;;;-2.29;81.03
55590;BME280;41452;42.780;23.116;2023-03-29T02:17:47;94739.66;;;-2.34;80.50
55590;BME280;41452;42.780;23.116;2023-03-29T02:20:20;94746.66;;;-2.26;80.85
55590;BME280;41452;42.780;23.116;2023-03-29T02:22:59;94756.16;;;-2.26;80.78
55590;BME280;41452;42.780;23.116;2023-03-29T02:25:29;94753.31;;;-2.23;80.45
55590;BME280;41452;42.780;23.116;2023-03-29T02:27:55;94739.00;;;-2.36;80.61
55590;BME280;41452;42.780;23.116;2023-03-29T02:30:21;94754.25;;;-2.24;80.85
55590;BME280;41452;42.780;23.116;2023-03-29T02:35:40;94760.19;;;-2.14;81.69
55590;BME280;41452;42.780;23.116;2023-03-29T02:38:10;94761.81;;;-2.13;81.12
55590;BME280;41452;42.780;23.116;2023-03-29T02:40:37;94763.41;;;-2.12;81.48
55590;BME280;41452;42.780;23.116;2023-03-29T02:43:04;94776.94;;;-2.10;81.86
55590;BME280;41452;42.780;23.116;2023-03-29T02:45:32;94739.41;;;-2.40;81.50
55590;BME280;41452;42.780;23.116;2023-03-29T02:48:05;94759.78;;;-2.19;82.21
55590;BME280;41452;42.780;23.116;2023-03-29T02:50:37;94769.66;;;-2.15;83.17
55590;BME280;41452;42.780;23.116;2023-03-29T02:53:07;94783.47;;;-2.16;84.00
55590;BME280;41452;42.780;23.116;2023-03-29T02:55:34;94699.03;;;-2.68;83.20
55590;BME280;41452;42.780;23.116;2023-03-29T02:58:00;94778.84;;;-2.12;82.86
55590;BME280;41452;42.780;23.116;2023-03-29T03:00:35;94787.16;;;-2.18;83.09
55590;BME280;41452;42.780;23.116;2023-03-29T03:03:04;94788.75;;;-2.17;83.34
55590;BME280;41452;42.780;23.116;2023-03-29T03:05:30;94777.81;;;-2.19;82.78
55590;BME280;41452;42.780;23.116;2023-03-29T03:07:55;94793.50;;;-2.13;82.48
55590;BME280;41452;42.780;23.116;2023-03-29T03:10:22;94808.13;;;-2.13;81.34
55590;BME280;41452;42.780;23.116;2023-03-29T03:12:47;94809.06;;;-2.14;80.44
55590;BME280;41452;42.780;23.116;2023-03-29T03:15:13;94783.81;;;-2.28;80.30
55590;BME280;41452;42.780;23.116;2023-03-29T03:17:39;94820.84;;;-2.12;79.93
55590;BME280;41452;42.780;23.116;2023-03-29T03:20:07;94820.56;;;-2.08;79.17
55590;BME280;41452;42.780;23.116;2023-03-29T03:22:38;94821.00;;;-2.13;79.59
55590;BME280;41452;42.780;23.116;2023-03-29T03:25:04;94824.25;;;-2.11;78.92
55590;BME280;41452;42.780;23.116;2023-03-29T03:27:30;94831.97;;;-2.11;78.54
55590;BME280;41452;42.780;23.116;2023-03-29T03:29:55;94831.38;;;-2.05;77.30
55590;BME280;41452;42.780;23.116;2023-03-29T03:32:20;94833.28;;;-2.07;78.41
55590;BME280;41452;42.780;23.116;2023-03-29T03:34:46;94844.41;;;-2.06;77.26
55590;BME280;41452;42.780;23.116;2023-03-29T03:37:12;94844.13;;;-2.03;77.62
55590;BME280;41452;42.780;23.116;2023-03-29T03:39:37;94844.94;;;-2.03;77.80
55590;BME280;41452;42.780;23.116;2023-03-29T03:42:02;94842.34;;;-2.03;77.98
55590;BME280;41452;42.780;23.116;2023-03-29T03:44:28;94844.66;;;-2.00;77.19
55590;BME280;41452;42.780;23.116;2023-03-29T03:46:53;94841.97;;;-2.08;76.71
55590;BME280;41452;42.780;23.116;2023-03-29T03:49:19;94838.84;;;-2.02;75.58
55590;BME280;41452;42.780;23.116;2023-03-29T03:51:46;94840.59;;;-2.02;75.84
55590;BME280;41452;42.780;23.116;2023-03-29T03:54:11;94822.22;;;-2.17;76.78
55590;BME280;41452;42.780;23.116;2023-03-29T03:56:36;94837.38;;;-2.14;76.20
55590;BME280;41452;42.780;23.116;2023-03-29T03:59:02;94847.16;;;-2.18;75.98
55590;BME280;41452;42.780;23.116;2023-03-29T04:01:27;94841.34;;;-2.20;76.70
55590;BME280;41452;42.780;23.116;2023-03-29T04:03:52;94847.16;;;-2.18;75.67
55590;BME280;41452;42.780;23.116;2023-03-29T04:06:18;94843.63;;;-2.17;76.82
55590;BME280;41452;42.780;23.116;2023-03-29T04:08:43;94829.44;;;-2.31;75.99
55590;BME280;41452;42.780;23.116;2023-03-29T04:11:09;94849.44;;;-2.15;76.99
55590;BME280;41452;42.780;23.116;2023-03-29T04:13:35;94852.69;;;-2.13;76.05
55590;BME280;41452;42.780;23.116;2023-03-29T04:16:01;94853.63;;;-2.04;76.48
55590;BME280;41452;42.780;23.116;2023-03-29T04:18:27;94841.72;;;-2.15;77.63
55590;BME280;41452;42.780;23.116;2023-03-29T04:20:53;94865.25;;;-2.00;77.32
55590;BME280;41452;42.780;23.116;2023-03-29T04:23:18;94861.72;;;-1.99;77.52
55590;BME280;41452;42.780;23.116;2023-03-29T04:25:44;94870.78;;;-1.95;77.85
55590;BME280;41452;42.780;23.116;2023-03-29T04:28:10;94865.50;;;-2.03;77.22
55590;BME280;41452;42.780;23.116;2023-03-29T04:30:36;94845.78;;;-2.12;77.57
55590;BME280;41452;42.780;23.116;2023-03-29T04:33:01;94869.06;;;-2.04;77.56
55590;BME280;41452;42.780;23.116;2023-03-29T04:35:26;94870.13;;;-2.06;76.69
55590;BME280;41452;42.780;23.116;2023-03-29T04:37:52;94869.38;;;-2.17;75.68
55590;BME280;41452;42.780;23.116;2023-03-29T04:40:19;94867.72;;;-2.18;74.80
55590;BME280;41452;42.780;23.116;2023-03-29T04:42:45;94872.06;;;-2.18;74.68
55590;BME280;41452;42.780;23.116;2023-03-29T04:45:12;94867.88;;;-2.19;75.47
55590;BME280;41452;42.780;23.116;2023-03-29T04:47:44;94872.34;;;-2.21;74.32
55590;BME280;41452;42.780;23.116;2023-03-29T04:50:10;94868.28;;;-2.24;75.23
55590;BME280;41452;42.780;23.116;2023-03-29T04:52:36;94869.09;;;-2.23;75.03
55590;BME280;41452;42.780;23.116;2023-03-29T04:55:03;94876.13;;;-2.16;73.97
55590;BME280;41452;42.780;23.116;2023-03-29T04:57:29;94878.44;;;-2.13;75.35
55590;BME280;41452;42.780;23.116;2023-03-29T04:59:55;94878.38;;;-2.03;75.02
55590;BME280;41452;42.780;23.116;2023-03-29T05:02:21;94861.88;;;-2.10;73.96
55590;BME280;41452;42.780;23.116;2023-03-29T05:04:46;94881.88;;;-1.94;73.73
55590;BME280;41452;42.780;23.116;2023-03-29T05:07:12;94886.34;;;-1.86;73.55
55590;BME280;41452;42.780;23.116;2023-03-29T05:09:39;94863.06;;;-1.95;73.76
55590;BME280;41452;42.780;23.116;2023-03-29T05:12:05;94888.47;;;-1.72;73.81
55590;BME280;41452;42.780;23.116;2023-03-29T05:14:31;94889.00;;;-1.68;72.78
55590;BME280;41452;42.780;23.116;2023-03-29T05:16:56;94891.66;;;-1.60;73.05
55590;BME280;41452;42.780;23.116;2023-03-29T05:19:22;94887.69;;;-1.55;73.26
55590;BME280;41452;42.780;23.116;2023-03-29T05:21:48;94897.59;;;-1.50;72.66
55590;BME280;41452;42.780;23.116;2023-03-29T05:24:17;94896.50;;;-1.47;72.65
55590;BME280;41452;42.780;23.116;2023-03-29T05:26:43;94897.97;;;-1.45;72.66
55590;BME280;41452;42.780;23.116;2023-03-29T05:29:09;94861.34;;;-1.66;72.43
55590;BME280;41452;42.780;23.116;2023-03-29T05:31:35;94902.19;;;-1.44;70.98
55590;BME280;41452;42.780;23.116;2023-03-29T05:34:02;94898.88;;;-1.36;72.47
55590;BME280;41452;42.780;23.116;2023-03-29T05:36:29;94902.91;;;-1.24;71.08
55590;BME280;41452;42.780;23.116;2023-03-29T05:38:54;94913.53;;;-1.09;71.92
55590;BME280;41452;42.780;23.116;2023-03-29T05:41:21;94915.81;;;-1.06;69.26
55590;BME280;41452;42.780;23.116;2023-03-29T05:43:48;94910.19;;;-1.19;68.54
55590;BME280;41452;42.780;23.116;2023-03-29T05:46:14;94918.00;;;-1.11;68.35
55590;BME280;41452;42.780;23.116;2023-03-29T05:48:40;94919.78;;;-1.11;70.06
55590;BME280;41452;42.780;23.116;2023-03-29T05:51:06;94925.78;;;-0.93;68.34
55590;BME280;41452;42.780;23.116;2023-03-29T05:53:32;94938.09;;;-0.87;68.96
55590;BME280;41452;42.780;23.116;2023-03-29T05:55:58;94937.00;;;-0.84;67.97
55590;BME280;41452;42.780;23.116;2023-03-29T05:58:23;94935.44;;;-0.77;68.87
55590;BME280;41452;42.780;23.116;2023-03-29T06:00:51;94898.66;;;-0.97;67.84
55590;BME280;41452;42.780;23.116;2023-03-29T06:03:18;94933.25;;;-0.72;68.36
55590;BME280;41452;42.780;23.116;2023-03-29T06:05:45;94934.53;;;-0.58;68.25
55590;BME280;41452;42.780;23.116;2023-03-29T06:08:13;94934.22;;;-0.55;67.59
55590;BME280;41452;42.780;23.116;2023-03-29T06:10:38;94940.47;;;-0.40;67.57
55590;BME280;41452;42.780;23.116;2023-03-29T06:13:03;94922.13;;;-0.54;65.44
55590;BME280;41452;42.780;23.116;2023-03-29T06:15:30;94935.47;;;-0.41;67.06
55590;BME280;41452;42.780;23.116;2023-03-29T06:17:56;94955.59;;;-0.27;68.50
55590;BME280;41452;42.780;23.116;2023-03-29T06:20:21;94945.63;;;-0.40;65.64
55590;BME280;41452;42.780;23.116;2023-03-29T06:22:46;94944.97;;;-0.42;66.44
55590;BME280;41452;42.780;23.116;2023-03-29T06:25:12;94951.63;;;-0.39;66.68
55590;BME280;41452;42.780;23.116;2023-03-29T06:27:39;94949.34;;;-0.42;66.03
55590;BME280;41452;42.780;23.116;2023-03-29T06:30:11;94961.22;;;-0.31;65.49
55590;BME280;41452;42.780;23.116;2023-03-29T06:32:38;94953.00;;;-0.27;65.99
55590;BME280;41452;42.780;23.116;2023-03-29T06:35:04;94961.25;;;-0.23;66.39
55590;BME280;41452;42.780;23.116;2023-03-29T06:37:30;94953.84;;;-0.26;67.35
55590;BME280;41452;42.780;23.116;2023-03-29T06:39:56;94944.69;;;-0.39;64.42
55590;BME280;41452;42.780;23.116;2023-03-29T06:42:22;94960.59;;;-0.25;65.70
55590;BME280;41452;42.780;23.116;2023-03-29T06:44:48;94942.16;;;-0.30;64.42
55590;BME280;41452;42.780;23.116;2023-03-29T06:47:15;94945.44;;;-0.28;64.10
55590;BME280;41452;42.780;23.116;2023-03-29T06:49:41;94949.03;;;-0.21;64.06
55590;BME280;41452;42.780;23.116;2023-03-29T06:52:07;94948.06;;;-0.20;64.49
55590;BME280;41452;42.780;23.116;2023-03-29T06:54:32;94951.00;;;-0.15;62.90
55590;BME280;41452;42.780;23.116;2023-03-29T06:56:58;94951.75;;;-0.05;62.91
55590;BME280;41452;42.780;23.116;2023-03-29T06:59:24;94950.69;;;0.06;63.08
55590;BME280;41452;42.780;23.116;2023-03-29T07:01:51;94949.94;;;0.14;61.58
55590;BME280;41452;42.780;23.116;2023-03-29T07:04:19;94957.47;;;0.25;61.67
55590;BME280;41452;42.780;23.116;2023-03-29T07:06:46;94954.63;;;0.36;60.24
55590;BME280;41452;42.780;23.116;2023-03-29T07:09:29;94899.03;;;0.06;60.82
55590;BME280;41452;42.780;23.116;2023-03-29T07:11:58;94947.38;;;0.40;61.28
55590;BME280;41452;42.780;23.116;2023-03-29T07:14:25;94899.50;;;0.28;62.20
55590;BME280;41452;42.780;23.116;2023-03-29T07:16:56;94932.78;;;0.57;61.06
55590;BME280;41452;42.780;23.116;2023-03-29T07:19:25;94963.88;;;0.82;62.46
55590;BME280;41452;42.780;23.116;2023-03-29T07:21:52;94953.78;;;0.62;58.86
55590;BME280;41452;42.780;23.116;2023-03-29T07:24:19;94956.63;;;0.77;60.43
55590;BME280;41452;42.780;23.116;2023-03-29T07:26:45;94953.13;;;0.94;60.54
55590;BME280;41452;42.780;23.116;2023-03-29T07:49:52;94951.28;;;1.29;56.06
55590;BME280;41452;42.780;23.116;2023-03-29T07:52:18;94950.50;;;1.29;55.00
55590;BME280;41452;42.780;23.116;2023-03-29T07:54:43;94925.22;;;1.14;54.83
55590;BME280;41452;42.780;23.116;2023-03-29T07:57:09;94938.88;;;1.41;58.42
55590;BME280;41452;42.780;23.116;2023-03-29T07:59:34;94953.94;;;1.54;56.20
55590;BME280;41452;42.780;23.116;2023-03-29T08:01:59;94945.53;;;1.52;53.55
55590;BME280;41452;42.780;23.116;2023-03-29T08:04:25;94946.66;;;1.58;53.08
55590;BME280;41452;42.780;23.116;2023-03-29T08:06:50;94962.22;;;1.66;53.05
55590;BME280;41452;42.780;23.116;2023-03-29T08:09:17;94950.91;;;1.75;51.70
55590;BME280;41452;42.780;23.116;2023-03-29T08:11:42;94959.81;;;1.89;53.44
55590;BME280;41452;42.780;23.116;2023-03-29T08:14:07;94931.31;;;1.73;48.77
55590;BME280;41452;42.780;23.116;2023-03-29T08:16:33;94937.63;;;1.86;48.71
55590;BME280;41452;42.780;23.116;2023-03-29T08:18:58;94923.53;;;1.81;50.89
55590;BME280;41452;42.780;23.116;2023-03-29T08:21:24;94943.13;;;2.00;49.26
55590;BME280;41452;42.780;23.116;2023-03-29T08:23:49;94953.03;;;2.04;48.01
55590;BME280;41452;42.780;23.116;2023-03-29T08:26:15;94942.81;;;2.03;47.90
55590;BME280;41452;42.780;23.116;2023-03-29T08:28:41;94947.19;;;2.11;48.08
55590;BME280;41452;42.780;23.116;2023-03-29T08:31:07;94938.75;;;2.17;49.23
55590;BME280;41452;42.780;23.116;2023-03-29T08:33:37;94930.47;;;2.30;49.86
55590;BME280;41452;42.780;23.116;2023-03-29T08:36:02;94927.88;;;2.13;46.50
55590;BME280;41452;42.780;23.116;2023-03-29T08:38:28;94929.00;;;2.27;47.33
55590;BME280;41452;42.780;23.116;2023-03-29T08:40:54;94873.81;;;2.02;47.61
55590;BME280;41452;42.780;23.116;2023-03-29T08:46:14;94938.53;;;2.51;47.65
55590;BME280;41452;42.780;23.116;2023-03-29T08:48:50;94944.22;;;2.46;47.32
55590;BME280;41452;42.780;23.116;2023-03-29T08:51:24;94948.91;;;2.51;46.65
55590;BME280;41452;42.780;23.116;2023-03-29T08:53:56;94941.28;;;2.58;46.41
55590;BME280;41452;42.780;23.116;2023-03-29T08:56:26;94944.03;;;2.56;47.42
55590;BME280;41452;42.780;23.116;2023-03-29T08:58:54;94943.84;;;2.74;47.87
55590;BME280;41452;42.780;23.116;2023-03-29T09:01:21;94930.00;;;2.90;47.53
55590;BME280;41452;42.780;23.116;2023-03-29T09:03:49;94931.28;;;2.94;47.87
55590;BME280;41452;42.780;23.116;2023-03-29T09:06:19;94922.47;;;3.03;46.92
55590;BME280;41452;42.780;23.116;2023-03-29T09:08:47;94925.53;;;3.07;46.40
55590;BME280;41452;42.780;23.116;2023-03-29T09:14:21;94928.13;;;3.38;44.11
55590;BME280;41452;42.780;23.116;2023-03-29T09:20:21;94923.91;;;3.37;43.92
55590;BME280;41452;42.780;23.116;2023-03-29T09:28:05;94929.66;;;3.79;42.70
55590;BME280;41452;42.780;23.116;2023-03-29T09:30:48;94935.09;;;3.69;39.93
55590;BME280;41452;42.780;23.116;2023-03-29T09:33:27;94947.88;;;3.48;38.60
55590;BME280;41452;42.780;23.116;2023-03-29T09:36:03;94932.16;;;3.41;39.74
55590;BME280;41452;42.780;23.116;2023-03-29T09:38:33;94893.41;;;3.39;41.97
55590;BME280;41452;42.780;23.116;2023-03-29T09:41:07;94933.06;;;3.79;42.68
55590;BME280;41452;42.780;23.116;2023-03-29T09:43:40;94913.03;;;3.65;41.63
55590;BME280;41452;42.780;23.116;2023-03-29T09:46:28;94925.97;;;3.73;41.99
55590;BME280;41452;42.780;23.116;2023-03-29T09:48:59;94915.78;;;3.87;40.79
55590;BME280;41452;42.780;23.116;2023-03-29T09:51:28;94915.41;;;3.98;41.59
55590;BME280;41452;42.780;23.116;2023-03-29T09:53:55;94865.97;;;3.83;41.63
55590;BME280;41452;42.780;23.116;2023-03-29T09:56:21;94918.72;;;4.07;41.04
55590;BME280;41452;42.780;23.116;2023-03-29T09:58:47;94919.72;;;4.06;41.35
55590;BME280;41452;42.780;23.116;2023-03-29T10:01:14;94906.22;;;4.25;44.35
55590;BME280;41452;42.780;23.116;2023-03-29T10:03:46;94915.56;;;4.34;41.81
55590;BME280;41452;42.780;23.116;2023-03-29T10:06:12;94905.81;;;4.51;40.72
55590;BME280;41452;42.780;23.116;2023-03-29T10:08:58;94932.34;;;4.47;38.46
55590;BME280;41452;42.780;23.116;2023-03-29T10:13:59;94869.78;;;3.95;39.82
55590;BME280;41452;42.780;23.116;2023-03-29T10:16:34;94899.78;;;4.21;41.25
55590;BME280;41452;42.780;23.116;2023-03-29T10:19:37;94904.50;;;4.17;39.31
55590;BME280;41452;42.780;23.116;2023-03-29T10:22:05;94887.91;;;4.18;39.49
55590;BME280;41452;42.780;23.116;2023-03-29T10:24:31;94889.63;;;4.26;41.00
55590;BME280;41452;42.780;23.116;2023-03-29T10:27:08;94900.84;;;4.27;38.67
55590;BME280;41452;42.780;23.116;2023-03-29T10:29:39;94894.13;;;4.47;40.92
55590;BME280;41452;42.780;23.116;2023-03-29T10:32:21;94886.78;;;4.66;40.11
55590;BME280;41452;42.780;23.116;2023-03-29T10:34:50;94889.47;;;4.72;38.52
55590;BME280;41452;42.780;23.116;2023-03-29T10:37:17;94867.13;;;4.78;40.53
55590;BME280;41452;42.780;23.116;2023-03-29T10:39:44;94882.56;;;4.65;37.17
55590;BME280;41452;42.780;23.116;2023-03-29T10:42:16;94861.22;;;4.54;38.48
55590;BME280;41452;42.780;23.116;2023-03-29T10:44:51;94855.63;;;4.72;39.21
55590;BME280;41452;42.780;23.116;2023-03-29T10:47:19;94865.16;;;4.80;39.84
55590;BME280;41452;42.780;23.116;2023-03-29T10:49:49;94858.16;;;4.81;37.88
55590;BME280;41452;42.780;23.116;2023-03-29T10:52:16;94853.88;;;4.73;37.64
55590;BME280;41452;42.780;23.116;2023-03-29T10:54:42;94860.41;;;4.84;37.05
55590;BME280;41452;42.780;23.116;2023-03-29T10:57:14;94841.13;;;4.78;37.25
55590;BME280;41452;42.780;23.116;2023-03-29T11:00:01;94854.44;;;4.90;37.32
55590;BME280;41452;42.780;23.116;2023-03-29T11:02:45;94852.97;;;4.66;36.87
55590;BME280;41452;42.780;23.116;2023-03-29T11:05:46;94831.16;;;4.82;40.28
55590;BME280;41452;42.780;23.116;2023-03-29T11:08:43;94838.06;;;5.11;38.86
55590;BME280;41452;42.780;23.116;2023-03-29T11:30:44;94854.72;;;5.53;36.64
55590;BME280;41452;42.780;23.116;2023-03-29T11:41:27;94843.50;;;5.96;36.78
55590;BME280;41452;42.780;23.116;2023-03-29T11:44:03;94839.81;;;5.68;34.79
55590;BME280;41452;42.780;23.116;2023-03-29T11:46:36;94847.69;;;5.75;35.00
55590;BME280;41452;42.780;23.116;2023-03-29T11:51:44;94836.56;;;5.88;34.74
55590;BME280;41452;42.780;23.116;2023-03-29T11:54:21;94836.19;;;5.91;34.76
55590;BME280;41452;42.780;23.116;2023-03-29T11:57:20;94836.47;;;5.96;35.31
55590;BME280;41452;42.780;23.116;2023-03-29T12:05:51;94828.66;;;5.96;35.08
55590;BME280;41452;42.780;23.116;2023-03-29T12:08:25;94800.72;;;5.68;35.82
55590;BME280;41452;42.780;23.116;2023-03-29T12:13:33;94829.00;;;5.93;35.71
55590;BME280;41452;42.780;23.116;2023-03-29T12:18:41;94842.16;;;6.35;35.61
55590;BME280;41452;42.780;23.116;2023-03-29T12:21:12;94831.81;;;6.20;34.56
55590;BME280;41452;42.780;23.116;2023-03-29T12:23:42;94802.91;;;5.93;34.24
55590;BME280;41452;42.780;23.116;2023-03-29T12:31:25;94835.88;;;6.22;36.44
55590;BME280;41452;42.780;23.116;2023-03-29T12:39:15;94833.56;;;6.06;35.08
55590;BME280;41452;42.780;23.116;2023-03-29T12:41:43;94828.84;;;6.23;35.63
55590;BME280;41452;42.780;23.116;2023-03-29T12:44:14;94822.47;;;6.32;35.81
55590;BME280;41452;42.780;23.116;2023-03-29T12:46:41;94833.13;;;6.37;35.80
55590;BME280;41452;42.780;23.116;2023-03-29T12:49:28;94811.66;;;6.35;33.92
55590;BME280;41452;42.780;23.116;2023-03-29T12:51:58;94815.53;;;6.46;34.15
55590;BME280;41452;42.780;23.116;2023-03-29T12:54:27;94815.78;;;6.58;35.95
55590;BME280;41452;42.780;23.116;2023-03-29T12:57:01;94773.84;;;6.59;35.55
55590;BME280;41452;42.780;23.116;2023-03-29T12:59:45;94821.13;;;6.84;33.88
55590;BME280;41452;42.780;23.116;2023-03-29T13:09:55;94816.97;;;6.55;34.06
55590;BME280;41452;42.780;23.116;2023-03-29T13:12:26;94797.34;;;6.66;34.44
55590;BME280;41452;42.780;23.116;2023-03-29T13:14:56;94759.94;;;6.45;33.20
55590;BME280;41452;42.780;23.116;2023-03-29T13:22:58;94820.00;;;6.59;31.02
55590;BME280;41452;42.780;23.116;2023-03-29T13:28:16;94798.88;;;6.54;33.30
55590;BME280;41452;42.780;23.116;2023-03-29T13:36:43;94818.69;;;6.76;32.16
55590;BME280;41452;42.780;23.116;2023-03-29T13:39:19;94809.25;;;6.82;31.50
55590;BME280;41452;42.780;23.116;2023-03-29T13:41:48;94812.25;;;6.72;30.96
55590;BME280;41452;42.780;23.116;2023-03-29T13:46:46;94823.25;;;6.61;31.86
55590;BME280;41452;42.780;23.116;2023-03-29T13:49:25;94809.56;;;6.52;31.72
55590;BME280;41452;42.780;23.116;2023-03-29T13:54:39;94819.66;;;6.69;32.63
55590;BME280;41452;42.780;23.116;2023-03-29T13:57:14;94807.38;;;6.62;32.15
55590;BME280;41452;42.780;23.116;2023-03-29T14:02:18;94813.78;;;6.60;32.60
55590;BME280;41452;42.780;23.116;2023-03-29T14:04:47;94814.25;;;6.70;32.28
55590;BME280;41452;42.780;23.116;2023-03-29T14:07:14;94814.81;;;6.65;33.38
55590;BME280;41452;42.780;23.116;2023-03-29T14:09:44;94824.28;;;6.73;33.29
55590;BME280;41452;42.780;23.116;2023-03-29T14:12:13;94822.59;;;6.59;33.09
55590;BME280;41452;42.780;23.116;2023-03-29T14:14:41;94820.56;;;6.47;31.61
55590;BME280;41452;42.780;23.116;2023-03-29T14:17:13;94807.22;;;6.29;31.90
55590;BME280;41452;42.780;23.116;2023-03-29T14:19:41;94816.91;;;6.42;33.33
55590;BME280;41452;42.780;23.116;2023-03-29T14:22:09;94837.00;;;6.41;33.71
55590;BME280;41452;42.780;23.116;2023-03-29T14:24:39;94834.72;;;6.32;33.80
55590;BME280;41452;42.780;23.116;2023-03-29T14:27:07;94813.41;;;6.28;33.45
55590;BME280;41452;42.780;23.116;2023-03-29T14:29:35;94824.09;;;6.33;33.20
55590;BME280;41452;42.780;23.116;2023-03-29T14:32:10;94807.84;;;6.03;31.74
55590;BME280;41452;42.780;23.116;2023-03-29T14:34:37;94780.97;;;6.02;32.81
55590;BME280;41452;42.780;23.116;2023-03-29T14:37:02;94757.50;;;6.02;32.79
55590;BME280;41452;42.780;23.116;2023-03-29T14:39:31;94816.41;;;6.25;32.21
55590;BME280;41452;42.780;23.116;2023-03-29T14:41:57;94818.78;;;6.20;32.66
55590;BME280;41452;42.780;23.116;2023-03-29T14:44:29;94814.41;;;6.27;33.20
55590;BME280;41452;42.780;23.116;2023-03-29T14:46:56;94826.00;;;6.18;32.72
55590;BME280;41452;42.780;23.116;2023-03-29T14:49:22;94784.56;;;6.01;33.89
55590;BME280;41452;42.780;23.116;2023-03-29T14:51:49;94816.41;;;6.25;33.85
55590;BME280;41452;42.780;23.116;2023-03-29T14:54:24;94798.69;;;6.14;34.93
55590;BME280;41452;42.780;23.116;2023-03-29T14:56:51;94818.16;;;6.18;33.55
55590;BME280;41452;42.780;23.116;2023-03-29T15:01:51;94820.41;;;6.21;34.54
55590;BME280;41452;42.780;23.116;2023-03-29T15:04:17;94816.81;;;6.28;35.17
55590;BME280;41452;42.780;23.116;2023-03-29T15:06:43;94830.06;;;6.27;34.27
55590;BME280;41452;42.780;23.116;2023-03-29T15:09:20;94828.59;;;6.18;34.65
55590;BME280;41452;42.780;23.116;2023-03-29T15:11:55;94828.75;;;6.09;34.30
55590;BME280;41452;42.780;23.116;2023-03-29T15:14:21;94832.47;;;6.00;34.95
55590;BME280;41452;42.780;23.116;2023-03-29T15:16:50;94832.63;;;5.92;34.55
55590;BME280;41452;42.780;23.116;2023-03-29T15:19:20;94840.06;;;5.95;34.83
55590;BME280;41452;42.780;23.116;2023-03-29T15:21:47;94824.78;;;5.92;35.22
55590;BME280;41452;42.780;23.116;2023-03-29T15:24:32;94831.88;;;5.77;35.44